sensor_id;sensor_type;location;lat;lon;timestamp;P1;durP1;ratioP1;P2;durP2;ratioP2
21905;SDS011;11117;48.644;9.006;2022-07-12T00:01:30;9.37;;;5.50;;
21905;SDS011;11117;48.644;9.006;2022-07-12T00:03:56;8.57;;;5.20;;
21905;SDS011;11117;48.644;9.006;2022-07-12T00:06:22;7.67;;;5.20;;
21905;SDS011;11117;48.644;9.006;2022-07-12T00:08:47;7.43;;;4.97;;
21905;SDS011;11117;48.644;9.006;2022-07-12T00:11:13;9.47;;;5.43;;
21905;SDS011;11117;48.644;9.006;2022-07-12T00:13:39;6.90;;;5.30;;
21905;SDS011;11117;48.644;9.006;2022-07-12T00:16:04;5.80;;;5.10;;
21905;SDS011;11117;48.644;9.006;2022-07-12T00:18:30;7.63;;;5.20;;
21905;SDS011;11117;48.644;9.006;2022-07-12T00:20:56;10.00;;;5.70;;
21905;SDS011;11117;48.644;9.006;2022-07-12T00:23:22;6.57;;;5.37;;
21905;SDS011;11117;48.644;9.006;2022-07-12T00:25:47;6.77;;;6.07;;
21905;SDS011;11117;48.644;9.006;2022-07-12T00:28:13;7.93;;;4.73;;
21905;SDS011;11117;48.644;9.006;2022-07-12T00:30:39;5.00;;;4.50;;
21905;SDS011;11117;48.644;9.006;2022-07-12T00:33:04;5.70;;;4.43;;
21905;SDS011;11117;48.644;9.006;2022-07-12T00:35:30;5.07;;;4.57;;
21905;SDS011;11117;48.644;9.006;2022-07-12T00:37:55;5.70;;;4.83;;
21905;SDS011;11117;48.644;9.006;2022-07-12T00:40:21;6.20;;;4.90;;
21905;SDS011;11117;48.644;9.006;2022-07-12T00:42:47;5.90;;;4.83;;
21905;SDS011;11117;48.644;9.006;2022-07-12T00:45:13;5.93;;;4.77;;
21905;SDS011;11117;48.644;9.006;2022-07-12T00:47:40;6.50;;;4.70;;
21905;SDS011;11117;48.644;9.006;2022-07-12T00:50:12;5.27;;;4.70;;
21905;SDS011;11117;48.644;9.006;2022-07-12T00:52:39;6.43;;;5.13;;
21905;SDS011;11117;48.644;9.006;2022-07-12T00:55:05;6.47;;;4.80;;
21905;SDS011;11117;48.644;9.006;2022-07-12T00:57:32;5.80;;;5.07;;
21905;SDS011;11117;48.644;9.006;2022-07-12T00:59:58;7.60;;;5.40;;
21905;SDS011;11117;48.644;9.006;2022-07-12T01:02:27;6.47;;;5.40;;
21905;SDS011;11117;48.644;9.006;2022-07-12T01:04:54;10.23;;;5.60;;
21905;SDS011;11117;48.644;9.006;2022-07-12T01:07:20;8.40;;;5.80;;
21905;SDS011;11117;48.644;9.006;2022-07-12T01:09:46;9.10;;;5.47;;
21905;SDS011;11117;48.644;9.006;2022-07-12T01:12:14;6.90;;;5.97;;
21905;SDS011;11117;48.644;9.006;2022-07-12T01:14:40;6.23;;;5.63;;
21905;SDS011;11117;48.644;9.006;2022-07-12T01:17:06;9.63;;;6.10;;
21905;SDS011;11117;48.644;9.006;2022-07-12T01:19:32;7.30;;;5.77;;
21905;SDS011;11117;48.644;9.006;2022-07-12T01:22:01;7.17;;;5.30;;
21905;SDS011;11117;48.644;9.006;2022-07-12T01:24:27;8.23;;;6.30;;
21905;SDS011;11117;48.644;9.006;2022-07-12T01:26:52;9.43;;;6.27;;
21905;SDS011;11117;48.644;9.006;2022-07-12T01:29:18;6.90;;;5.90;;
21905;SDS011;11117;48.644;9.006;2022-07-12T01:31:44;8.43;;;6.40;;
21905;SDS011;11117;48.644;9.006;2022-07-12T01:34:10;6.67;;;5.97;;
21905;SDS011;11117;48.644;9.006;2022-07-12T01:36:36;11.63;;;6.63;;
21905;SDS011;11117;48.644;9.006;2022-07-12T01:39:03;8.47;;;5.87;;
21905;SDS011;11117;48.644;9.006;2022-07-12T01:41:29;8.13;;;6.70;;
21905;SDS011;11117;48.644;9.006;2022-07-12T01:43:56;7.90;;;6.43;;
21905;SDS011;11117;48.644;9.006;2022-07-12T01:46:25;6.47;;;5.70;;
21905;SDS011;11117;48.644;9.006;2022-07-12T01:48:57;7.13;;;6.03;;
21905;SDS011;11117;48.644;9.006;2022-07-12T01:51:22;8.10;;;5.83;;
21905;SDS011;11117;48.644;9.006;2022-07-12T01:54:09;9.63;;;6.50;;
21905;SDS011;11117;48.644;9.006;2022-07-12T01:56:48;7.20;;;6.20;;
21905;SDS011;11117;48.644;9.006;2022-07-12T01:59:42;8.20;;;6.00;;
21905;SDS011;11117;48.644;9.006;2022-07-12T02:02:08;7.37;;;6.10;;
21905;SDS011;11117;48.644;9.006;2022-07-12T02:04:34;6.43;;;5.27;;
21905;SDS011;11117;48.644;9.006;2022-07-12T02:07:00;6.90;;;6.03;;
21905;SDS011;11117;48.644;9.006;2022-07-12T02:09:26;9.10;;;5.83;;
21905;SDS011;11117;48.644;9.006;2022-07-12T02:11:52;10.47;;;6.13;;
21905;SDS011;11117;48.644;9.006;2022-07-12T02:14:18;7.07;;;5.90;;
21905;SDS011;11117;48.644;9.006;2022-07-12T02:16:44;8.80;;;6.20;;
21905;SDS011;11117;48.644;9.006;2022-07-12T02:19:10;9.70;;;6.10;;
21905;SDS011;11117;48.644;9.006;2022-07-12T02:21:37;8.43;;;6.60;;
21905;SDS011;11117;48.644;9.006;2022-07-12T02:24:03;6.67;;;6.00;;
21905;SDS011;11117;48.644;9.006;2022-07-12T02:26:29;6.67;;;5.97;;
21905;SDS011;11117;48.644;9.006;2022-07-12T02:28:54;6.20;;;5.60;;
21905;SDS011;11117;48.644;9.006;2022-07-12T02:31:20;7.10;;;6.23;;
21905;SDS011;11117;48.644;9.006;2022-07-12T02:33:45;8.17;;;6.50;;
21905;SDS011;11117;48.644;9.006;2022-07-12T02:36:11;8.20;;;6.50;;
21905;SDS011;11117;48.644;9.006;2022-07-12T02:38:37;8.07;;;6.57;;
21905;SDS011;11117;48.644;9.006;2022-07-12T02:41:02;8.70;;;6.10;;
21905;SDS011;11117;48.644;9.006;2022-07-12T02:43:29;8.23;;;6.30;;
21905;SDS011;11117;48.644;9.006;2022-07-12T02:46:02;9.40;;;6.90;;
21905;SDS011;11117;48.644;9.006;2022-07-12T02:48:29;11.53;;;7.67;;
21905;SDS011;11117;48.644;9.006;2022-07-12T02:50:55;10.10;;;6.87;;
21905;SDS011;11117;48.644;9.006;2022-07-12T02:53:21;7.80;;;7.00;;
21905;SDS011;11117;48.644;9.006;2022-07-12T02:55:46;9.67;;;7.20;;
21905;SDS011;11117;48.644;9.006;2022-07-12T02:58:12;8.33;;;6.97;;
21905;SDS011;11117;48.644;9.006;2022-07-12T03:00:38;9.17;;;6.80;;
21905;SDS011;11117;48.644;9.006;2022-07-12T03:03:04;14.27;;;7.30;;
21905;SDS011;11117;48.644;9.006;2022-07-12T03:05:30;12.23;;;7.40;;
21905;SDS011;11117;48.644;9.006;2022-07-12T03:07:55;9.23;;;6.80;;
21905;SDS011;11117;48.644;9.006;2022-07-12T03:10:21;8.40;;;6.83;;
21905;SDS011;11117;48.644;9.006;2022-07-12T03:12:46;10.80;;;7.33;;
21905;SDS011;11117;48.644;9.006;2022-07-12T03:15:12;8.63;;;7.33;;
21905;SDS011;11117;48.644;9.006;2022-07-12T03:17:37;9.80;;;7.27;;
21905;SDS011;11117;48.644;9.006;2022-07-12T03:20:03;9.87;;;7.23;;
21905;SDS011;11117;48.644;9.006;2022-07-12T03:22:30;10.57;;;7.37;;
21905;SDS011;11117;48.644;9.006;2022-07-12T03:24:56;13.30;;;7.20;;
21905;SDS011;11117;48.644;9.006;2022-07-12T03:27:22;8.73;;;7.20;;
21905;SDS011;11117;48.644;9.006;2022-07-12T03:29:47;7.63;;;6.77;;
21905;SDS011;11117;48.644;9.006;2022-07-12T03:32:13;11.10;;;7.47;;
21905;SDS011;11117;48.644;9.006;2022-07-12T03:34:39;10.10;;;7.60;;
21905;SDS011;11117;48.644;9.006;2022-07-12T03:37:04;12.13;;;7.50;;
21905;SDS011;11117;48.644;9.006;2022-07-12T03:39:31;10.50;;;7.30;;
21905;SDS011;11117;48.644;9.006;2022-07-12T03:41:56;11.00;;;7.27;;
21905;SDS011;11117;48.644;9.006;2022-07-12T03:44:22;8.47;;;7.20;;
21905;SDS011;11117;48.644;9.006;2022-07-12T03:46:48;8.10;;;6.97;;
21905;SDS011;11117;48.644;9.006;2022-07-12T03:49:13;8.23;;;7.37;;
21905;SDS011;11117;48.644;9.006;2022-07-12T03:51:39;11.37;;;8.13;;
21905;SDS011;11117;48.644;9.006;2022-07-12T03:54:05;13.57;;;7.90;;
21905;SDS011;11117;48.644;9.006;2022-07-12T03:56:31;8.13;;;6.87;;
21905;SDS011;11117;48.644;9.006;2022-07-12T03:58:57;10.00;;;7.20;;
21905;SDS011;11117;48.644;9.006;2022-07-12T04:01:22;9.57;;;7.47;;
21905;SDS011;11117;48.644;9.006;2022-07-12T04:03:48;9.57;;;7.53;;
21905;SDS011;11117;48.644;9.006;2022-07-12T04:06:13;11.10;;;7.27;;
21905;SDS011;11117;48.644;9.006;2022-07-12T04:08:39;10.07;;;7.00;;
21905;SDS011;11117;48.644;9.006;2022-07-12T04:11:05;7.87;;;6.50;;
21905;SDS011;11117;48.644;9.006;2022-07-12T04:13:30;7.60;;;6.60;;
21905;SDS011;11117;48.644;9.006;2022-07-12T04:15:56;9.27;;;6.90;;
21905;SDS011;11117;48.644;9.006;2022-07-12T04:18:22;9.30;;;7.20;;
21905;SDS011;11117;48.644;9.006;2022-07-12T04:20:47;11.87;;;6.80;;
21905;SDS011;11117;48.644;9.006;2022-07-12T04:23:13;7.23;;;6.43;;
21905;SDS011;11117;48.644;9.006;2022-07-12T04:25:38;8.63;;;6.43;;
21905;SDS011;11117;48.644;9.006;2022-07-12T04:28:04;7.93;;;6.33;;
21905;SDS011;11117;48.644;9.006;2022-07-12T04:30:29;8.40;;;6.03;;
21905;SDS011;11117;48.644;9.006;2022-07-12T04:32:55;12.20;;;6.60;;
21905;SDS011;11117;48.644;9.006;2022-07-12T04:35:20;9.67;;;6.30;;
21905;SDS011;11117;48.644;9.006;2022-07-12T04:37:46;12.13;;;6.57;;
21905;SDS011;11117;48.644;9.006;2022-07-12T04:40:12;10.93;;;5.57;;
21905;SDS011;11117;48.644;9.006;2022-07-12T04:42:37;20.90;;;6.40;;
21905;SDS011;11117;48.644;9.006;2022-07-12T04:45:03;7.20;;;5.43;;
21905;SDS011;11117;48.644;9.006;2022-07-12T04:47:29;6.90;;;6.20;;
21905;SDS011;11117;48.644;9.006;2022-07-12T04:49:54;7.20;;;4.90;;
21905;SDS011;11117;48.644;9.006;2022-07-12T04:52:20;6.53;;;5.55;;
21905;SDS011;11117;48.644;9.006;2022-07-12T04:54:46;8.18;;;5.25;;
21905;SDS011;11117;48.644;9.006;2022-07-12T04:57:12;9.40;;;6.95;;
21905;SDS011;11117;48.644;9.006;2022-07-12T04:59:37;8.55;;;6.45;;
21905;SDS011;11117;48.644;9.006;2022-07-12T05:02:06;7.25;;;5.10;;
21905;SDS011;11117;48.644;9.006;2022-07-12T05:04:32;9.23;;;4.53;;
21905;SDS011;11117;48.644;9.006;2022-07-12T05:06:58;7.72;;;4.03;;
21905;SDS011;11117;48.644;9.006;2022-07-12T05:09:23;7.43;;;4.13;;
21905;SDS011;11117;48.644;9.006;2022-07-12T05:11:49;7.97;;;3.85;;
21905;SDS011;11117;48.644;9.006;2022-07-12T05:14:14;10.27;;;4.63;;
21905;SDS011;11117;48.644;9.006;2022-07-12T05:16:40;8.13;;;4.28;;
21905;SDS011;11117;48.644;9.006;2022-07-12T05:19:05;7.93;;;3.80;;
21905;SDS011;11117;48.644;9.006;2022-07-12T05:21:31;8.90;;;3.95;;
21905;SDS011;11117;48.644;9.006;2022-07-12T05:23:57;5.88;;;3.60;;
21905;SDS011;11117;48.644;9.006;2022-07-12T05:26:22;5.68;;;3.30;;
21905;SDS011;11117;48.644;9.006;2022-07-12T05:28:48;4.07;;;2.90;;
21905;SDS011;11117;48.644;9.006;2022-07-12T05:31:13;3.88;;;2.92;;
21905;SDS011;11117;48.644;9.006;2022-07-12T05:33:39;2.70;;;2.50;;
21905;SDS011;11117;48.644;9.006;2022-07-12T05:36:05;3.38;;;2.35;;
21905;SDS011;11117;48.644;9.006;2022-07-12T05:38:31;5.90;;;2.63;;
21905;SDS011;11117;48.644;9.006;2022-07-12T05:40:57;8.65;;;3.40;;
21905;SDS011;11117;48.644;9.006;2022-07-12T05:43:22;4.60;;;3.42;;
21905;SDS011;11117;48.644;9.006;2022-07-12T05:45:48;7.22;;;3.50;;
21905;SDS011;11117;48.644;9.006;2022-07-12T05:48:13;5.80;;;3.20;;
21905;SDS011;11117;48.644;9.006;2022-07-12T05:50:39;15.73;;;3.92;;
21905;SDS011;11117;48.644;9.006;2022-07-12T05:53:05;8.32;;;3.28;;
21905;SDS011;11117;48.644;9.006;2022-07-12T05:55:30;2.33;;;2.10;;
21905;SDS011;11117;48.644;9.006;2022-07-12T05:57:56;2.88;;;2.10;;
21905;SDS011;11117;48.644;9.006;2022-07-12T06:00:23;6.22;;;2.40;;
21905;SDS011;11117;48.644;9.006;2022-07-12T06:02:48;2.80;;;2.10;;
21905;SDS011;11117;48.644;9.006;2022-07-12T06:05:14;4.18;;;2.40;;
21905;SDS011;11117;48.644;9.006;2022-07-12T06:07:39;2.60;;;2.40;;
21905;SDS011;11117;48.644;9.006;2022-07-12T06:10:05;5.78;;;2.40;;
21905;SDS011;11117;48.644;9.006;2022-07-12T06:12:31;2.50;;;2.20;;
21905;SDS011;11117;48.644;9.006;2022-07-12T06:14:56;2.38;;;2.17;;
21905;SDS011;11117;48.644;9.006;2022-07-12T06:17:22;3.30;;;2.70;;
21905;SDS011;11117;48.644;9.006;2022-07-12T06:19:47;2.80;;;2.60;;
21905;SDS011;11117;48.644;9.006;2022-07-12T06:22:13;3.63;;;2.78;;
21905;SDS011;11117;48.644;9.006;2022-07-12T06:24:39;5.60;;;2.70;;
21905;SDS011;11117;48.644;9.006;2022-07-12T06:27:04;2.78;;;2.47;;
21905;SDS011;11117;48.644;9.006;2022-07-12T06:29:30;2.45;;;2.25;;
21905;SDS011;11117;48.644;9.006;2022-07-12T06:31:56;3.53;;;2.60;;
21905;SDS011;11117;48.644;9.006;2022-07-12T06:34:21;3.60;;;2.72;;
21905;SDS011;11117;48.644;9.006;2022-07-12T06:36:47;3.28;;;2.50;;
21905;SDS011;11117;48.644;9.006;2022-07-12T06:39:13;3.00;;;2.45;;
21905;SDS011;11117;48.644;9.006;2022-07-12T06:41:38;2.92;;;2.47;;
21905;SDS011;11117;48.644;9.006;2022-07-12T06:44:04;6.30;;;2.47;;
21905;SDS011;11117;48.644;9.006;2022-07-12T06:46:29;5.55;;;2.20;;
21905;SDS011;11117;48.644;9.006;2022-07-12T06:48:55;3.70;;;2.45;;
21905;SDS011;11117;48.644;9.006;2022-07-12T06:51:21;4.03;;;2.35;;
21905;SDS011;11117;48.644;9.006;2022-07-12T06:53:46;3.05;;;2.13;;
21905;SDS011;11117;48.644;9.006;2022-07-12T06:56:12;2.65;;;2.10;;
21905;SDS011;11117;48.644;9.006;2022-07-12T06:58:37;2.78;;;2.13;;
21905;SDS011;11117;48.644;9.006;2022-07-12T07:01:03;4.95;;;2.17;;
21905;SDS011;11117;48.644;9.006;2022-07-12T07:03:29;4.45;;;2.00;;
21905;SDS011;11117;48.644;9.006;2022-07-12T07:05:54;1.83;;;1.73;;
21905;SDS011;11117;48.644;9.006;2022-07-12T07:08:20;1.77;;;1.50;;
21905;SDS011;11117;48.644;9.006;2022-07-12T07:10:45;1.70;;;1.60;;
21905;SDS011;11117;48.644;9.006;2022-07-12T07:13:11;1.80;;;1.65;;
21905;SDS011;11117;48.644;9.006;2022-07-12T07:15:40;1.73;;;1.60;;
21905;SDS011;11117;48.644;9.006;2022-07-12T07:18:05;2.30;;;1.70;;
21905;SDS011;11117;48.644;9.006;2022-07-12T07:20:31;3.72;;;1.50;;
21905;SDS011;11117;48.644;9.006;2022-07-12T07:22:57;3.58;;;1.60;;
21905;SDS011;11117;48.644;9.006;2022-07-12T07:25:22;2.20;;;1.50;;
21905;SDS011;11117;48.644;9.006;2022-07-12T07:27:48;1.70;;;1.50;;
21905;SDS011;11117;48.644;9.006;2022-07-12T07:30:13;2.28;;;1.30;;
21905;SDS011;11117;48.644;9.006;2022-07-12T07:32:39;4.90;;;1.55;;
21905;SDS011;11117;48.644;9.006;2022-07-12T07:35:04;4.38;;;1.40;;
21905;SDS011;11117;48.644;9.006;2022-07-12T07:37:30;2.60;;;1.60;;
21905;SDS011;11117;48.644;9.006;2022-07-12T07:39:56;5.07;;;1.80;;
21905;SDS011;11117;48.644;9.006;2022-07-12T07:42:22;3.45;;;1.30;;
21905;SDS011;11117;48.644;9.006;2022-07-12T07:44:48;1.50;;;1.23;;
21905;SDS011;11117;48.644;9.006;2022-07-12T07:47:13;1.92;;;1.10;;
21905;SDS011;11117;48.644;9.006;2022-07-12T07:49:39;2.42;;;1.50;;
21905;SDS011;11117;48.644;9.006;2022-07-12T07:52:05;3.00;;;1.33;;
21905;SDS011;11117;48.644;9.006;2022-07-12T07:54:30;1.80;;;1.40;;
21905;SDS011;11117;48.644;9.006;2022-07-12T07:56:56;1.50;;;1.13;;
21905;SDS011;11117;48.644;9.006;2022-07-12T07:59:21;2.17;;;1.33;;
21905;SDS011;11117;48.644;9.006;2022-07-12T08:01:47;1.48;;;1.35;;
21905;SDS011;11117;48.644;9.006;2022-07-12T08:04:13;1.40;;;1.00;;
21905;SDS011;11117;48.644;9.006;2022-07-12T08:06:39;1.92;;;1.20;;
21905;SDS011;11117;48.644;9.006;2022-07-12T08:09:06;2.72;;;1.15;;
21905;SDS011;11117;48.644;9.006;2022-07-12T08:11:32;2.50;;;1.00;;
21905;SDS011;11117;48.644;9.006;2022-07-12T08:13:59;1.75;;;1.20;;
21905;SDS011;11117;48.644;9.006;2022-07-12T08:16:25;1.10;;;1.00;;
21905;SDS011;11117;48.644;9.006;2022-07-12T08:18:51;6.07;;;1.40;;
21905;SDS011;11117;48.644;9.006;2022-07-12T08:21:17;1.23;;;1.08;;
21905;SDS011;11117;48.644;9.006;2022-07-12T08:23:44;3.92;;;1.08;;
21905;SDS011;11117;48.644;9.006;2022-07-12T08:26:10;2.95;;;1.00;;
21905;SDS011;11117;48.644;9.006;2022-07-12T08:28:35;1.42;;;0.98;;
21905;SDS011;11117;48.644;9.006;2022-07-12T08:31:01;1.08;;;0.90;;
21905;SDS011;11117;48.644;9.006;2022-07-12T08:33:26;1.55;;;1.10;;
21905;SDS011;11117;48.644;9.006;2022-07-12T08:35:52;1.27;;;0.80;;
21905;SDS011;11117;48.644;9.006;2022-07-12T08:38:17;5.43;;;0.80;;
21905;SDS011;11117;48.644;9.006;2022-07-12T08:40:43;3.72;;;1.00;;
21905;SDS011;11117;48.644;9.006;2022-07-12T08:43:09;4.85;;;1.10;;
21905;SDS011;11117;48.644;9.006;2022-07-12T08:45:34;4.15;;;1.20;;
21905;SDS011;11117;48.644;9.006;2022-07-12T08:48:00;3.08;;;0.85;;
21905;SDS011;11117;48.644;9.006;2022-07-12T08:50:26;1.92;;;1.27;;
21905;SDS011;11117;48.644;9.006;2022-07-12T08:52:52;1.88;;;1.35;;
21905;SDS011;11117;48.644;9.006;2022-07-12T08:55:20;3.38;;;1.30;;
21905;SDS011;11117;48.644;9.006;2022-07-12T08:57:49;1.52;;;1.10;;
21905;SDS011;11117;48.644;9.006;2022-07-12T09:00:16;4.03;;;1.20;;
21905;SDS011;11117;48.644;9.006;2022-07-12T09:02:46;6.85;;;1.20;;
21905;SDS011;11117;48.644;9.006;2022-07-12T09:05:13;1.30;;;1.20;;
21905;SDS011;11117;48.644;9.006;2022-07-12T09:07:40;6.75;;;1.20;;
21905;SDS011;11117;48.644;9.006;2022-07-12T09:10:06;1.30;;;1.10;;
21905;SDS011;11117;48.644;9.006;2022-07-12T09:12:33;5.55;;;1.02;;
21905;SDS011;11117;48.644;9.006;2022-07-12T09:15:12;4.65;;;1.10;;
21905;SDS011;11117;48.644;9.006;2022-07-12T09:20:24;1.30;;;1.10;;
21905;SDS011;11117;48.644;9.006;2022-07-12T09:22:55;1.17;;;1.08;;
21905;SDS011;11117;48.644;9.006;2022-07-12T09:25:34;1.40;;;0.90;;
21905;SDS011;11117;48.644;9.006;2022-07-12T09:28:05;3.22;;;1.30;;
21905;SDS011;11117;48.644;9.006;2022-07-12T09:30:32;2.50;;;1.23;;
21905;SDS011;11117;48.644;9.006;2022-07-12T09:32:59;1.60;;;1.13;;
21905;SDS011;11117;48.644;9.006;2022-07-12T09:35:29;1.85;;;1.50;;
21905;SDS011;11117;48.644;9.006;2022-07-12T09:37:54;5.55;;;1.50;;
21905;SDS011;11117;48.644;9.006;2022-07-12T09:40:34;4.20;;;1.40;;
21905;SDS011;11117;48.644;9.006;2022-07-12T09:43:00;3.47;;;1.42;;
21905;SDS011;11117;48.644;9.006;2022-07-12T09:45:27;1.65;;;1.30;;
21905;SDS011;11117;48.644;9.006;2022-07-12T09:47:53;2.72;;;1.20;;
21905;SDS011;11117;48.644;9.006;2022-07-12T09:50:19;1.63;;;1.10;;
21905;SDS011;11117;48.644;9.006;2022-07-12T09:52:45;4.45;;;1.50;;
21905;SDS011;11117;48.644;9.006;2022-07-12T09:55:14;1.73;;;1.45;;
21905;SDS011;11117;48.644;9.006;2022-07-12T09:57:44;1.25;;;1.15;;
21905;SDS011;11117;48.644;9.006;2022-07-12T10:00:11;1.30;;;1.10;;
21905;SDS011;11117;48.644;9.006;2022-07-12T10:02:37;2.13;;;1.50;;
21905;SDS011;11117;48.644;9.006;2022-07-12T10:05:04;2.85;;;1.55;;
21905;SDS011;11117;48.644;9.006;2022-07-12T10:07:36;3.60;;;1.30;;
21905;SDS011;11117;48.644;9.006;2022-07-12T10:10:03;2.78;;;1.52;;
21905;SDS011;11117;48.644;9.006;2022-07-12T10:12:29;1.50;;;1.40;;
21905;SDS011;11117;48.644;9.006;2022-07-12T10:14:57;2.90;;;1.42;;
21905;SDS011;11117;48.644;9.006;2022-07-12T10:17:26;1.20;;;1.10;;
21905;SDS011;11117;48.644;9.006;2022-07-12T10:20:14;1.23;;;1.10;;
21905;SDS011;11117;48.644;9.006;2022-07-12T10:22:41;2.25;;;1.20;;
21905;SDS011;11117;48.644;9.006;2022-07-12T10:25:27;1.42;;;1.20;;
21905;SDS011;11117;48.644;9.006;2022-07-12T10:27:59;1.40;;;1.30;;
21905;SDS011;11117;48.644;9.006;2022-07-12T10:30:26;1.80;;;1.23;;
21905;SDS011;11117;48.644;9.006;2022-07-12T10:32:53;1.50;;;1.40;;
21905;SDS011;11117;48.644;9.006;2022-07-12T10:35:21;3.05;;;1.50;;
21905;SDS011;11117;48.644;9.006;2022-07-12T10:40:44;1.70;;;1.30;;
21905;SDS011;11117;48.644;9.006;2022-07-12T10:43:12;3.25;;;1.20;;
21905;SDS011;11117;48.644;9.006;2022-07-12T10:45:43;1.98;;;1.20;;
21905;SDS011;11117;48.644;9.006;2022-07-12T10:58:30;2.08;;;1.00;;
21905;SDS011;11117;48.644;9.006;2022-07-12T11:06:27;2.63;;;1.00;;
21905;SDS011;11117;48.644;9.006;2022-07-12T11:08:54;1.63;;;1.00;;
21905;SDS011;11117;48.644;9.006;2022-07-12T11:11:23;3.03;;;1.00;;
21905;SDS011;11117;48.644;9.006;2022-07-12T11:13:50;2.38;;;0.90;;
21905;SDS011;11117;48.644;9.006;2022-07-12T11:16:16;1.35;;;1.00;;
21905;SDS011;11117;48.644;9.006;2022-07-12T11:18:42;1.38;;;0.90;;
21905;SDS011;11117;48.644;9.006;2022-07-12T11:21:08;2.15;;;0.90;;
21905;SDS011;11117;48.644;9.006;2022-07-12T11:23:34;1.58;;;0.80;;
21905;SDS011;11117;48.644;9.006;2022-07-12T11:26:00;2.45;;;0.90;;
21905;SDS011;11117;48.644;9.006;2022-07-12T11:28:27;1.45;;;1.00;;
21905;SDS011;11117;48.644;9.006;2022-07-12T11:31:00;0.80;;;0.80;;
21905;SDS011;11117;48.644;9.006;2022-07-12T11:33:47;2.47;;;0.80;;
21905;SDS011;11117;48.644;9.006;2022-07-12T11:36:14;0.98;;;0.70;;
21905;SDS011;11117;48.644;9.006;2022-07-12T11:38:44;3.70;;;0.82;;
21905;SDS011;11117;48.644;9.006;2022-07-12T11:41:13;1.60;;;0.70;;
21905;SDS011;11117;48.644;9.006;2022-07-12T11:43:40;0.73;;;0.70;;
21905;SDS011;11117;48.644;9.006;2022-07-12T11:46:06;2.03;;;0.70;;
21905;SDS011;11117;48.644;9.006;2022-07-12T11:48:33;0.93;;;0.63;;
21905;SDS011;11117;48.644;9.006;2022-07-12T11:51:04;2.20;;;0.60;;
21905;SDS011;11117;48.644;9.006;2022-07-12T11:53:32;0.88;;;0.68;;
21905;SDS011;11117;48.644;9.006;2022-07-12T11:55:59;1.05;;;0.70;;
21905;SDS011;11117;48.644;9.006;2022-07-12T11:58:26;1.48;;;0.50;;
21905;SDS011;11117;48.644;9.006;2022-07-12T12:00:53;0.82;;;0.60;;
21905;SDS011;11117;48.644;9.006;2022-07-12T12:03:19;3.90;;;0.60;;
21905;SDS011;11117;48.644;9.006;2022-07-12T12:05:45;0.85;;;0.50;;
21905;SDS011;11117;48.644;9.006;2022-07-12T12:08:17;1.58;;;0.60;;
21905;SDS011;11117;48.644;9.006;2022-07-12T12:10:56;0.95;;;0.50;;
21905;SDS011;11117;48.644;9.006;2022-07-12T12:13:23;2.33;;;0.57;;
21905;SDS011;11117;48.644;9.006;2022-07-12T12:15:53;3.13;;;0.47;;
21905;SDS011;11117;48.644;9.006;2022-07-12T12:21:02;2.17;;;0.63;;
21905;SDS011;11117;48.644;9.006;2022-07-12T12:23:31;3.90;;;0.68;;
21905;SDS011;11117;48.644;9.006;2022-07-12T12:26:11;1.77;;;0.60;;
21905;SDS011;11117;48.644;9.006;2022-07-12T12:28:59;2.28;;;0.55;;
21905;SDS011;11117;48.644;9.006;2022-07-12T12:31:24;1.30;;;0.60;;
21905;SDS011;11117;48.644;9.006;2022-07-12T12:33:54;2.10;;;0.50;;
21905;SDS011;11117;48.644;9.006;2022-07-12T12:36:26;3.58;;;0.60;;
21905;SDS011;11117;48.644;9.006;2022-07-12T12:38:55;0.80;;;0.50;;
21905;SDS011;11117;48.644;9.006;2022-07-12T12:41:22;2.92;;;0.55;;
21905;SDS011;11117;48.644;9.006;2022-07-12T12:44:03;0.75;;;0.50;;
21905;SDS011;11117;48.644;9.006;2022-07-12T12:49:18;1.02;;;0.50;;
21905;SDS011;11117;48.644;9.006;2022-07-12T12:54:36;0.75;;;0.32;;
21905;SDS011;11117;48.644;9.006;2022-07-12T12:57:02;2.83;;;0.50;;
21905;SDS011;11117;48.644;9.006;2022-07-12T12:59:29;1.02;;;0.40;;
21905;SDS011;11117;48.644;9.006;2022-07-12T13:01:55;0.95;;;0.60;;
21905;SDS011;11117;48.644;9.006;2022-07-12T13:04:20;2.53;;;0.60;;
21905;SDS011;11117;48.644;9.006;2022-07-12T13:06:46;3.50;;;0.40;;
21905;SDS011;11117;48.644;9.006;2022-07-12T13:09:12;3.60;;;0.50;;
21905;SDS011;11117;48.644;9.006;2022-07-12T13:11:37;1.00;;;0.50;;
21905;SDS011;11117;48.644;9.006;2022-07-12T13:14:03;0.45;;;0.40;;
21905;SDS011;11117;48.644;9.006;2022-07-12T13:16:29;0.82;;;0.57;;
21905;SDS011;11117;48.644;9.006;2022-07-12T13:18:54;2.22;;;0.50;;
21905;SDS011;11117;48.644;9.006;2022-07-12T13:21:20;0.73;;;0.50;;
21905;SDS011;11117;48.644;9.006;2022-07-12T13:23:46;2.33;;;0.65;;
21905;SDS011;11117;48.644;9.006;2022-07-12T13:26:15;2.28;;;0.45;;
21905;SDS011;11117;48.644;9.006;2022-07-12T13:28:40;4.57;;;0.40;;
21905;SDS011;11117;48.644;9.006;2022-07-12T13:31:06;0.93;;;0.50;;
21905;SDS011;11117;48.644;9.006;2022-07-12T13:33:31;1.83;;;0.63;;
21905;SDS011;11117;48.644;9.006;2022-07-12T13:36:00;2.38;;;0.35;;
21905;SDS011;11117;48.644;9.006;2022-07-12T13:38:26;1.20;;;0.60;;
21905;SDS011;11117;48.644;9.006;2022-07-12T13:40:51;4.53;;;0.40;;
21905;SDS011;11117;48.644;9.006;2022-07-12T13:43:26;1.05;;;0.70;;
21905;SDS011;11117;48.644;9.006;2022-07-12T13:45:51;1.90;;;0.47;;
21905;SDS011;11117;48.644;9.006;2022-07-12T13:48:17;1.65;;;0.50;;
21905;SDS011;11117;48.644;9.006;2022-07-12T13:50:43;1.40;;;0.50;;
21905;SDS011;11117;48.644;9.006;2022-07-12T13:53:09;0.73;;;0.40;;
21905;SDS011;11117;48.644;9.006;2022-07-12T13:55:34;1.60;;;0.40;;
21905;SDS011;11117;48.644;9.006;2022-07-12T13:58:00;1.25;;;0.65;;
21905;SDS011;11117;48.644;9.006;2022-07-12T14:00:26;0.95;;;0.40;;
21905;SDS011;11117;48.644;9.006;2022-07-12T14:02:51;1.48;;;0.40;;
21905;SDS011;11117;48.644;9.006;2022-07-12T14:05:17;0.50;;;0.50;;
21905;SDS011;11117;48.644;9.006;2022-07-12T14:07:46;0.50;;;0.40;;
21905;SDS011;11117;48.644;9.006;2022-07-12T14:10:12;0.65;;;0.40;;
21905;SDS011;11117;48.644;9.006;2022-07-12T14:12:41;1.85;;;0.50;;
21905;SDS011;11117;48.644;9.006;2022-07-12T14:15:07;0.50;;;0.38;;
21905;SDS011;11117;48.644;9.006;2022-07-12T14:18:09;0.52;;;0.40;;
21905;SDS011;11117;48.644;9.006;2022-07-12T14:20:34;0.52;;;0.40;;
21905;SDS011;11117;48.644;9.006;2022-07-12T14:23:00;0.70;;;0.30;;
21905;SDS011;11117;48.644;9.006;2022-07-12T14:25:26;1.27;;;0.30;;
21905;SDS011;11117;48.644;9.006;2022-07-12T14:27:52;2.35;;;0.40;;
21905;SDS011;11117;48.644;9.006;2022-07-12T14:30:17;0.50;;;0.50;;
21905;SDS011;11117;48.644;9.006;2022-07-12T14:32:43;0.77;;;0.40;;
21905;SDS011;11117;48.644;9.006;2022-07-12T14:35:17;1.08;;;0.40;;
21905;SDS011;11117;48.644;9.006;2022-07-12T14:37:46;2.58;;;0.30;;
21905;SDS011;11117;48.644;9.006;2022-07-12T14:40:13;0.40;;;0.40;;
21905;SDS011;11117;48.644;9.006;2022-07-12T14:42:39;0.30;;;0.30;;
21905;SDS011;11117;48.644;9.006;2022-07-12T14:45:05;2.03;;;0.40;;
21905;SDS011;11117;48.644;9.006;2022-07-12T14:47:32;0.63;;;0.60;;
21905;SDS011;11117;48.644;9.006;2022-07-12T14:49:58;0.90;;;0.30;;
21905;SDS011;11117;48.644;9.006;2022-07-12T14:52:24;0.35;;;0.35;;
21905;SDS011;11117;48.644;9.006;2022-07-12T14:54:49;0.40;;;0.40;;
21905;SDS011;11117;48.644;9.006;2022-07-12T14:57:15;1.10;;;0.47;;
21905;SDS011;11117;48.644;9.006;2022-07-12T14:59:41;1.15;;;0.40;;
21905;SDS011;11117;48.644;9.006;2022-07-12T15:02:12;0.35;;;0.35;;
21905;SDS011;11117;48.644;9.006;2022-07-12T15:04:37;2.40;;;0.50;;
21905;SDS011;11117;48.644;9.006;2022-07-12T15:07:03;0.70;;;0.32;;
21905;SDS011;11117;48.644;9.006;2022-07-12T15:09:32;1.98;;;0.30;;
21905;SDS011;11117;48.644;9.006;2022-07-12T15:11:57;2.17;;;0.38;;
21905;SDS011;11117;48.644;9.006;2022-07-12T15:14:23;0.55;;;0.30;;